Time;durP1;ratioP1;P1;durP2;ratioP2;P2;SDS_P1;SDS_P2;PMS_P1;PMS_P2;Temp;Humidity;BMP_temperature;BMP_pressure;BME280_temperature;BME280_humidity;BME280_pressure;Samples;Min_cycle;Max_cycle;Signal;HPM_P1;HPM_P2
2022/01/04 00:01:57;;;;;;;7.53;6.82;;;;;;;19.43;45.88;101134.31;5013491;28;20042;-78
2022/01/04 00:04:25;;;;;;;8.98;6.88;;;;;;;19.44;45.63;101119.91;5011105;28;20486;-77
2022/01/04 00:06:54;;;;;;;7.90;6.85;;;;;;;19.44;45.71;101126.13;5012681;28;20401;-78
2022/01/04 00:09:22;;;;;;;7.65;6.93;;;;;;;19.47;45.61;101120.50;5012393;28;20042;-77
2022/01/04 00:14:23;;;;;;;7.40;6.60;;;;;;;19.48;45.63;101118.66;5012308;28;20430;-78
2022/01/04 00:16:54;;;;;;;8.05;7.25;;;;;;;19.48;45.51;101111.47;5015290;28;20046;-77
2022/01/04 00:19:23;;;;;;;7.15;6.45;;;;;;;19.49;45.62;101109.66;4998357;28;20042;-78
2022/01/04 00:21:50;;;;;;;8.25;6.78;;;;;;;19.51;45.56;101126.47;5014592;28;20054;-77
2022/01/04 00:24:17;;;;;;;7.82;6.57;;;;;;;19.50;45.41;101120.25;5015972;28;20038;-77
2022/01/04 00:26:45;;;;;;;7.60;6.80;;;;;;;19.50;45.57;101116.72;5015692;28;20049;-77
2022/01/04 00:29:15;;;;;;;7.10;6.40;;;;;;;19.50;45.53;101111.34;5015974;28;20049;-77
2022/01/04 00:31:42;;;;;;;8.50;6.53;;;;;;;19.51;45.53;101118.44;5015741;28;20041;-77
2022/01/04 00:34:09;;;;;;;7.57;6.88;;;;;;;19.50;45.64;101122.94;5013776;28;20417;-77
2022/01/04 00:36:37;;;;;;;8.75;6.95;;;;;;;19.50;45.42;101108.69;5015532;28;20050;-77
2022/01/04 00:39:04;;;;;;;7.55;6.75;;;;;;;19.48;45.48;101103.41;5014200;28;20410;-77
2022/01/04 00:41:31;;;;;;;7.03;6.32;;;;;;;19.50;45.54;101103.31;5014849;28;20098;-77
2022/01/04 00:43:59;;;;;;;9.00;7.00;;;;;;;19.49;45.48;101096.22;5015912;28;20042;-77
2022/01/04 00:46:26;;;;;;;7.63;6.82;;;;;;;19.49;45.53;101093.56;5014707;28;20041;-77
2022/01/04 00:49:09;;;;;;;8.27;6.80;;;;;;;19.49;45.63;101093.56;5015451;28;20041;-77
2022/01/04 00:51:54;;;;;;;7.30;6.57;;;;;;;19.47;45.38;101088.28;5014736;28;20435;-77
2022/01/04 00:54:22;;;;;;;7.35;6.63;;;;;;;19.47;45.64;101072.19;5015610;28;20050;-77
2022/01/04 00:56:49;;;;;;;7.30;6.60;;;;;;;19.47;45.45;101074.84;5015343;28;20512;-77
2022/01/04 00:59:17;;;;;;;7.40;6.70;;;;;;;19.48;45.58;101075.72;5027037;28;20037;-77
2022/01/04 01:01:45;;;;;;;6.72;6.13;;;;;;;19.47;45.40;101069.50;5034628;28;20053;-77
2022/01/04 01:04:13;;;;;;;7.30;6.60;;;;;;;19.47;45.68;101079.38;5033797;28;20048;-77
2022/01/04 01:06:41;;;;;;;6.70;6.10;;;;;;;19.49;45.31;101085.50;5034868;28;20053;-77
2022/01/04 01:09:08;;;;;;;6.93;6.30;;;;;;;19.49;45.45;101083.66;5035149;28;20056;-77
2022/01/04 01:11:35;;;;;;;6.82;6.15;;;;;;;19.51;45.21;101080.84;5035048;28;20049;-77
2022/01/04 01:14:03;;;;;;;7.05;6.35;;;;;;;19.51;45.01;101084.38;5033814;28;20053;-77
2022/01/04 01:16:30;;;;;;;6.75;6.15;;;;;;;19.52;45.14;101077.16;5033905;28;20057;-77
2022/01/04 01:18:58;;;;;;;6.72;6.03;;;;;;;19.53;44.96;101073.53;5035155;28;20041;-78
2022/01/04 01:21:25;;;;;;;6.93;6.22;;;;;;;19.53;45.11;101078.88;5034432;28;20785;-78
2022/01/04 01:23:52;;;;;;;7.60;6.45;;;;;;;19.54;45.14;101074.38;5034667;28;20052;-77
2022/01/04 01:26:20;;;;;;;6.88;6.28;;;;;;;19.54;45.11;101072.53;5034202;28;20050;-78
2022/01/04 01:28:47;;;;;;;6.07;5.50;;;;;;;19.55;45.23;101079.59;5033705;28;20056;-78
2022/01/04 01:31:15;;;;;;;7.10;6.40;;;;;;;19.55;44.97;101087.66;5034108;28;20405;-78
2022/01/04 01:33:42;;;;;;;6.90;6.30;;;;;;;19.55;45.05;101084.97;5034264;28;20045;-78
2022/01/04 01:36:09;;;;;;;6.45;5.85;;;;;;;19.56;44.88;101089.34;5034456;28;20412;-77
2022/01/04 01:38:37;;;;;;;6.38;5.78;;;;;;;19.56;45.06;101083.13;5033362;28;20054;-78
2022/01/04 01:41:04;;;;;;;6.88;6.18;;;;;;;19.55;45.00;101090.34;5033969;28;20409;-77
2022/01/04 01:43:31;;;;;;;6.82;6.22;;;;;;;19.55;45.05;101093.03;5016914;28;20072;-78
2022/01/04 01:45:59;;;;;;;6.25;5.65;;;;;;;19.55;45.09;101090.34;5034124;28;20045;-77
2022/01/04 01:48:27;;;;;;;6.47;5.88;;;;;;;19.54;45.10;101085.97;5024653;28;20409;-78
2022/01/04 01:50:54;;;;;;;7.40;6.63;;;;;;;19.54;45.08;101083.28;5014162;28;20038;-78
2022/01/04 01:53:22;;;;;;;6.30;5.70;;;;;;;19.56;44.96;101093.88;5014390;28;20152;-78
2022/01/04 01:55:50;;;;;;;5.78;5.28;;;;;;;19.55;45.28;101093.03;5014063;28;20053;-78
2022/01/04 01:58:17;;;;;;;6.40;5.80;;;;;;;19.55;45.15;101087.66;5012858;28;20509;-78
2022/01/04 02:00:45;;;;;;;6.78;6.18;;;;;;;19.54;44.99;101064.47;5026825;28;20492;-78
2022/01/04 02:03:12;;;;;;;6.38;5.70;;;;;;;19.54;45.05;101072.53;4993104;28;20050;-78
2022/01/04 02:05:40;;;;;;;6.53;5.93;;;;;;;19.53;45.21;101068.16;4993182;28;20057;-78
2022/01/04 02:08:08;;;;;;;5.60;5.10;;;;;;;19.54;45.03;101059.09;4994211;28;20406;-78
2022/01/04 02:10:36;;;;;;;6.82;6.13;;;;;;;19.53;45.05;101060.09;4994740;28;20057;-78
2022/01/04 02:13:03;;;;;;;5.95;5.35;;;;;;;19.51;44.90;101046.78;4992859;28;20054;-77
2022/01/04 02:15:33;;;;;;;6.35;5.75;;;;;;;19.52;45.13;101031.50;4992404;28;20054;-78
2022/01/04 02:18:00;;;;;;;6.10;5.40;;;;;;;19.52;45.17;101042.25;4994745;28;20047;-77
2022/01/04 02:20:29;;;;;;;5.82;5.22;;;;;;;19.51;45.19;101044.09;4993838;28;20057;-78
2022/01/04 02:22:56;;;;;;;6.18;5.57;;;;;;;19.50;45.10;101033.50;4993251;28;20047;-78
2022/01/04 02:25:24;;;;;;;6.20;5.60;;;;;;;19.50;45.13;101045.06;4994304;28;20061;-77
2022/01/04 02:27:52;;;;;;;6.18;5.57;;;;;;;19.51;45.25;101045.94;4994158;28;20057;-78
2022/01/04 02:30:20;;;;;;;6.75;5.82;;;;;;;19.49;45.13;101034.47;4992041;28;20062;-78
2022/01/04 02:32:48;;;;;;;6.20;5.60;;;;;;;19.48;45.22;101017.50;4994313;28;20057;-78
2022/01/04 02:35:19;;;;;;;5.50;5.00;;;;;;;19.48;45.03;101017.50;4993802;28;20378;-77
2022/01/04 02:37:46;;;;;;;6.90;5.63;;;;;;;19.49;45.12;101013.00;4993885;28;20046;-77
2022/01/04 02:40:15;;;;;;;6.97;6.28;;;;;;;19.48;45.14;101016.63;4996934;28;20045;-77
2022/01/04 02:42:42;;;;;;;6.40;5.80;;;;;;;19.47;45.14;101018.47;5013550;28;20046;-77
2022/01/04 02:45:10;;;;;;;5.82;5.25;;;;;;;19.47;45.23;101005.06;5013289;28;20049;-76
2022/01/04 02:47:38;;;;;;;6.05;5.45;;;;;;;19.48;45.25;100992.47;5011647;28;20053;-77
2022/01/04 02:50:07;;;;;;;6.45;5.85;;;;;;;19.48;45.20;100996.00;5013631;28;20401;-77
2022/01/04 02:52:34;;;;;;;7.32;6.63;;;;;;;19.48;45.14;100998.69;5013029;28;20049;-77
2022/01/04 02:55:07;;;;;;;6.32;5.70;;;;;;;19.49;45.06;101010.31;5013089;28;20046;-78
2022/01/04 02:57:35;;;;;;;;;;;;;;;19.49;45.24;101000.41;5012897;28;20512;-77
2022/01/04 03:00:05;;;;;;;6.45;5.85;;;;;;;19.48;45.30;100997.84;5015110;28;19921;-77
2022/01/04 03:02:33;;;;;;;6.22;5.63;;;;;;;19.48;45.23;101000.53;5031847;28;20068;-77
2022/01/04 03:05:00;;;;;;;6.60;5.80;;;;;;;19.47;45.12;100993.47;5032912;28;20405;-78
2022/01/04 03:07:28;;;;;;;5.95;5.45;;;;;;;19.47;45.06;100978.19;5033074;28;20046;-77
2022/01/04 03:09:55;;;;;;;6.60;5.93;;;;;;;19.48;45.22;100982.56;5032962;28;20045;-78
2022/01/04 03:12:22;;;;;;;6.50;5.80;;;;;;;19.48;45.13;100973.69;5032891;28;20046;-78
2022/01/04 03:14:50;;;;;;;6.07;5.47;;;;;;;19.48;44.98;100976.34;5032531;28;20428;-78
2022/01/04 03:17:17;;;;;;;6.95;6.25;;;;;;;19.49;45.09;100961.97;5032938;28;20049;-78
2022/01/04 03:19:44;;;;;;;6.88;6.18;;;;;;;19.47;44.99;100959.41;5032614;28;20045;-77
2022/01/04 03:22:12;;;;;;;7.00;6.30;;;;;;;19.48;45.17;100954.88;5032915;28;20049;-77
2022/01/04 03:24:39;;;;;;;6.80;6.15;;;;;;;19.47;45.24;100939.75;5031461;28;20056;-78
2022/01/04 03:27:06;;;;;;;6.75;6.03;;;;;;;19.47;45.25;100937.94;5032815;28;20041;-78
2022/01/04 03:29:34;;;;;;;6.68;6.05;;;;;;;19.48;44.84;100936.09;5032463;28;20401;-78
2022/01/04 03:32:02;;;;;;;6.45;5.85;;;;;;;19.49;44.90;100938.66;5032901;28;20106;-77
2022/01/04 03:34:30;;;;;;;6.97;6.28;;;;;;;19.49;44.88;100938.66;5031598;28;20412;-77
2022/01/04 03:36:57;;;;;;;6.20;5.60;;;;;;;19.51;44.96;100938.50;5032456;28;20393;-78
2022/01/04 03:39:25;;;;;;;7.15;6.45;;;;;;;19.50;44.81;100926.09;5031267;28;20509;-78
2022/01/04 03:41:52;;;;;;;7.13;6.43;;;;;;;19.49;44.94;100917.19;5032259;28;20049;-77
2022/01/04 03:44:20;;;;;;;7.00;6.30;;;;;;;19.51;44.93;100935.84;5032526;28;20052;-77
2022/01/04 03:46:49;;;;;;;6.43;5.78;;;;;;;19.51;44.81;100925.94;5032424;28;20048;-77
2022/01/04 03:49:18;;;;;;;6.70;6.10;;;;;;;19.51;44.61;100920.56;5016545;28;20517;-77
2022/01/04 03:51:45;;;;;;;6.70;6.00;;;;;;;19.52;44.70;100921.41;5013389;28;20057;-77
2022/01/04 03:54:13;;;;;;;7.32;6.63;;;;;;;19.52;44.57;100914.22;5016643;28;20097;-77
2022/01/04 03:56:41;;;;;;;7.07;6.38;;;;;;;19.52;44.71;100911.53;5016145;28;20053;-77
2022/01/04 03:59:08;;;;;;;6.78;6.13;;;;;;;19.52;44.67;100916.03;5016224;28;20057;-77
2022/01/04 04:01:35;;;;;;;6.63;6.00;;;;;;;19.51;44.81;100900.94;5020361;28;20037;-78
2022/01/04 04:04:03;;;;;;;7.13;6.43;;;;;;;19.51;44.85;100892.88;5034045;28;20093;-77
2022/01/04 04:06:31;;;;;;;7.18;6.47;;;;;;;19.50;44.78;100892.03;5036115;28;20508;-77
2022/01/04 04:08:58;;;;;;;7.05;6.35;;;;;;;19.51;44.71;100893.72;5035943;28;20049;-77
2022/01/04 04:11:26;;;;;;;7.25;6.55;;;;;;;19.51;44.70;100890.19;5035859;28;20045;-78
2022/01/04 04:13:53;;;;;;;6.97;6.32;;;;;;;19.51;44.68;100876.75;5036040;28;20057;-78
2022/01/04 04:16:21;;;;;;;6.43;5.82;;;;;;;19.51;44.74;100866.88;5034172;28;20053;-78
2022/01/04 04:18:49;;;;;;;7.53;5.78;;;;;;;19.50;44.67;100873.22;5035633;28;20048;-78
2022/01/04 04:21:16;;;;;;;6.80;6.10;;;;;;;19.50;44.96;100867.84;5036006;28;20049;-78
2022/01/04 04:23:43;;;;;;;7.20;6.30;;;;;;;19.49;44.84;100862.63;5035497;28;20053;-78
2022/01/04 04:26:11;;;;;;;7.28;6.50;;;;;;;19.49;44.70;100858.09;5035284;28;20041;-78
2022/01/04 04:28:38;;;;;;;7.28;6.57;;;;;;;19.49;44.82;100843.84;5035969;28;20489;-78
2022/01/04 04:31:06;;;;;;;7.45;6.72;;;;;;;19.48;44.74;100842.97;5034375;28;20056;-78
2022/01/04 04:33:33;;;;;;;7.10;6.40;;;;;;;19.49;44.55;100847.38;5035602;28;20049;-78
2022/01/04 04:36:01;;;;;;;7.57;6.53;;;;;;;19.49;44.92;100854.56;5035611;28;20374;-78
2022/01/04 04:38:28;;;;;;;6.45;5.85;;;;;;;19.48;44.79;100856.38;5035570;28;20054;-78
2022/01/04 04:40:56;;;;;;;6.70;6.00;;;;;;;19.48;44.85;100861.75;5032044;28;20046;-78
2022/01/04 04:43:23;;;;;;;6.65;5.95;;;;;;;19.48;45.04;100866.28;5015690;28;20046;-78
2022/01/04 04:45:50;;;;;;;7.18;6.32;;;;;;;19.47;45.33;100869.94;5015313;28;20057;-78
2022/01/04 04:48:18;;;;;;;7.07;6.07;;;;;;;19.46;45.04;100868.25;5015200;28;20041;-78
2022/01/04 04:50:45;;;;;;;8.15;6.38;;;;;;;19.46;45.25;100873.63;5015882;28;20053;-78
2022/01/04 04:53:13;;;;;;;6.97;6.28;;;;;;;19.45;44.97;100870.09;5015275;28;20397;-78
2022/01/04 04:55:40;;;;;;;7.15;6.45;;;;;;;19.45;44.95;100878.16;5015261;28;20049;-78
2022/01/04 04:58:07;;;;;;;7.13;6.43;;;;;;;19.45;45.16;100871.94;5015504;28;20049;-78
2022/01/04 05:00:35;;;;;;;6.82;6.13;;;;;;;19.44;45.02;100873.75;5015221;28;20049;-78
2022/01/04 05:03:03;;;;;;;6.78;6.07;;;;;;;19.44;45.09;100871.06;5024614;28;20046;-78
2022/01/04 05:05:31;;;;;;;7.65;6.50;;;;;;;19.43;45.16;100864.00;5034791;28;20045;-78
2022/01/04 05:07:58;;;;;;;7.03;6.13;;;;;;;19.44;45.07;100867.53;5034775;28;20076;-78
2022/01/04 05:10:25;;;;;;;6.28;5.68;;;;;;;19.43;44.88;100879.25;5034732;28;20056;-78
2022/01/04 05:12:53;;;;;;;6.75;6.05;;;;;;;19.43;44.99;100874.72;5033325;28;20049;-78
2022/01/04 05:15:20;;;;;;;6.60;5.90;;;;;;;19.43;45.00;100868.50;5034344;28;20409;-78
2022/01/04 05:17:47;;;;;;;7.55;6.40;;;;;;;19.43;45.11;100880.09;5035465;28;20046;-78
2022/01/04 05:20:15;;;;;;;7.53;6.72;;;;;;;19.42;44.69;100877.56;5034774;28;20045;-78
2022/01/04 05:22:42;;;;;;;7.35;6.65;;;;;;;19.41;44.97;100871.34;5034784;28;20505;-78
2022/01/04 05:25:10;;;;;;;7.40;6.65;;;;;;;19.41;44.91;100876.72;5033801;28;20046;-78
2022/01/04 05:27:37;;;;;;;7.72;6.93;;;;;;;19.40;44.91;100866.94;5035864;28;20382;-78
2022/01/04 05:30:06;;;;;;;7.13;6.43;;;;;;;19.40;45.09;100871.44;5034801;28;20425;-78
2022/01/04 05:32:33;;;;;;;7.43;6.65;;;;;;;19.40;45.03;100868.78;5033041;28;20064;-78
2022/01/04 05:35:00;;;;;;;7.75;6.78;;;;;;;19.40;44.88;100866.94;5034578;28;20064;-78
2022/01/04 05:37:28;;;;;;;7.28;6.32;;;;;;;19.42;44.79;100877.56;5033938;28;20374;-78
2022/01/04 05:39:55;;;;;;;7.63;6.93;;;;;;;19.43;44.80;100881.94;5034119;28;20049;-78
2022/01/04 05:42:22;;;;;;;7.82;7.03;;;;;;;19.43;44.53;100869.34;5034514;28;20049;-78
2022/01/04 05:44:50;;;;;;;7.28;6.47;;;;;;;19.43;44.51;100855.94;5034061;28;20171;-78
2022/01/04 05:47:17;;;;;;;7.60;6.88;;;;;;;19.43;44.75;100866.69;5034084;28;20037;-78
2022/01/04 05:49:45;;;;;;;7.65;6.85;;;;;;;19.43;44.84;100841.66;5014295;28;20042;-78
2022/01/04 05:52:12;;;;;;;7.85;7.05;;;;;;;19.43;44.75;100847.88;5012220;28;20057;-78
2022/01/04 05:54:41;;;;;;;7.72;6.93;;;;;;;19.43;44.69;100847.03;5014027;28;20053;-77
2022/01/04 05:57:09;;;;;;;8.30;6.30;;;;;;;19.43;44.57;100847.03;5013959;28;20041;-77
2022/01/04 05:59:37;;;;;;;7.45;6.75;;;;;;;19.43;44.83;100864.00;5014105;28;20042;-78
2022/01/04 06:02:04;;;;;;;7.55;6.57;;;;;;;19.43;44.92;100864.00;5013869;28;20057;-77
2022/01/04 06:04:31;;;;;;;7.63;6.85;;;;;;;19.42;44.90;100867.66;5025824;28;20049;-77
2022/01/04 06:06:59;;;;;;;7.32;6.55;;;;;;;19.42;44.88;100873.03;5033569;28;20105;-77
2022/01/04 06:09:38;;;;;;;7.70;6.78;;;;;;;19.41;44.85;100871.34;5033496;28;20543;-77
2022/01/04 06:14:50;;;;;;;7.72;6.93;;;;;;;19.43;44.78;100863.16;5033751;28;20057;-77
2022/01/04 06:14:54;;;;;;;8.00;7.00;;;;;;;19.42;44.57;100862.28;5031275;28;20461;-77
2022/01/04 06:17:37;;;;;;;7.40;6.68;;;;;;;19.42;44.77;100866.81;5033570;28;20101;-77
2022/01/04 06:20:07;;;;;;;7.88;7.07;;;;;;;19.41;44.60;100839.13;5033582;28;20401;-77
2022/01/04 06:22:34;;;;;;;7.35;6.65;;;;;;;19.40;44.68;100849.97;5033201;28;20056;-77
2022/01/04 06:25:02;;;;;;;7.75;6.93;;;;;;;19.40;44.81;100840.09;5033717;28;20056;-77
2022/01/04 06:27:30;;;;;;;7.85;7.03;;;;;;;19.39;44.87;100834.84;5033154;28;20042;-77
2022/01/04 06:29:58;;;;;;;8.38;7.53;;;;;;;19.37;44.80;100829.63;5033252;28;20048;-78
2022/01/04 06:32:25;;;;;;;7.90;7.10;;;;;;;19.37;44.67;100832.31;5033476;28;20045;-78
2022/01/04 06:34:53;;;;;;;7.20;6.50;;;;;;;19.37;44.93;100832.31;5032941;28;20044;-78
2022/01/04 06:37:20;;;;;;;7.78;6.75;;;;;;;19.40;44.75;100847.28;5033206;28;20056;-78
2022/01/04 06:39:48;;;;;;;7.82;7.00;;;;;;;19.38;45.03;100834.00;5032007;28;20053;-78
2022/01/04 06:42:15;;;;;;;7.78;6.88;;;;;;;19.36;44.99;100829.75;5027360;28;20053;-78
2022/01/04 06:44:43;;;;;;;7.40;6.68;;;;;;;19.35;45.06;100823.53;5013168;28;20042;-78
2022/01/04 06:47:11;;;;;;;6.97;5.90;;;;;;;19.33;45.22;100824.66;5013304;28;20424;-77
2022/01/04 06:49:38;;;;;;;8.18;7.00;;;;;;;19.33;45.36;100821.97;5013626;28;20382;-78
2022/01/04 06:52:08;;;;;;;6.70;6.10;;;;;;;19.32;45.35;100820.25;5013274;28;20046;-78
2022/01/04 06:54:36;;;;;;;6.78;6.10;;;;;;;19.33;45.33;100821.97;5013404;28;20050;-78
2022/01/04 06:57:04;;;;;;;6.38;5.68;;;;;;;19.32;45.20;100818.41;5013332;28;20046;-78
2022/01/04 06:59:31;;;;;;;6.30;5.30;;;;;;;19.33;44.88;100819.28;5012971;28;20050;-78
2022/01/04 07:02:00;;;;;;;7.18;6.38;;;;;;;19.34;45.30;100831.72;5013230;28;20413;-78
2022/01/04 07:04:28;;;;;;;7.32;6.63;;;;;;;19.34;45.16;100847.84;5018253;28;20048;-78
2022/01/04 07:06:56;;;;;;;7.45;6.75;;;;;;;19.35;45.19;100834.28;5030731;28;20046;-78
2022/01/04 07:09:23;;;;;;;6.88;6.22;;;;;;;19.34;45.03;100839.78;5032625;28;20053;-78
2022/01/04 07:11:51;;;;;;;6.85;6.00;;;;;;;19.34;44.95;100837.94;5032969;28;20412;-78
2022/01/04 07:14:18;;;;;;;6.57;5.97;;;;;;;19.35;44.94;100834.28;5032283;28;20053;-78
2022/01/04 07:16:46;;;;;;;7.15;6.32;;;;;;;19.35;44.92;100841.47;5031356;28;20424;-78
2022/01/04 07:19:15;;;;;;;6.55;5.90;;;;;;;19.35;44.88;100839.63;5032669;28;20053;-78
2022/01/04 07:21:42;;;;;;;5.60;5.03;;;;;;;19.34;44.84;100839.78;5032594;28;20053;-78
2022/01/04 07:24:10;;;;;;;7.03;5.95;;;;;;;19.35;44.82;100828.06;5032506;28;20052;-78
2022/01/04 07:26:37;;;;;;;6.53;5.88;;;;;;;19.36;44.84;100832.44;5035371;28;20057;-78
2022/01/04 07:29:04;;;;;;;7.32;6.13;;;;;;;19.35;44.81;100839.63;5036090;28;20053;-78
2022/01/04 07:31:32;;;;;;;6.30;5.68;;;;;;;19.35;44.59;100828.06;5036653;28;20478;-78
2022/01/04 07:34:00;;;;;;;7.15;6.45;;;;;;;19.36;44.54;100835.97;5036525;28;20049;-78
2022/01/04 07:36:30;;;;;;;7.20;6.43;;;;;;;19.37;44.54;100839.53;5036652;28;20430;-79
2022/01/04 07:38:58;;;;;;;7.40;6.38;;;;;;;19.37;44.46;100842.22;5036296;28;20045;-78
2022/01/04 07:41:26;;;;;;;8.35;5.95;;;;;;;19.36;44.51;100835.97;5035176;28;20049;-78
2022/01/04 07:43:54;;;;;;;5.93;5.35;;;;;;;19.37;44.72;100826.09;5036752;28;20045;-78
2022/01/04 07:46:23;;;;;;;7.35;6.40;;;;;;;19.37;44.62;100829.63;5036257;28;20045;-78
2022/01/04 07:48:51;;;;;;;8.30;6.63;;;;;;;19.38;44.52;100827.78;5023496;28;20094;-78
2022/01/04 07:51:19;;;;;;;6.10;5.50;;;;;;;19.39;44.45;100834.84;5015522;28;20061;-78
2022/01/04 07:53:46;;;;;;;6.55;5.82;;;;;;;19.37;44.56;100843.06;5016425;28;20049;-78
2022/01/04 07:56:14;;;;;;;6.70;5.55;;;;;;;19.37;44.42;100843.06;5016299;28;20072;-78
2022/01/04 07:58:41;;;;;;;6.82;6.13;;;;;;;19.38;44.61;100842.06;5015340;28;20098;-78
2022/01/04 08:01:08;;;;;;;7.07;6.32;;;;;;;19.37;44.36;100829.63;5016096;28;20069;-78
2022/01/04 08:03:36;;;;;;;6.55;5.90;;;;;;;19.39;44.43;100848.28;5016050;28;20059;-78
2022/01/04 08:06:04;;;;;;;6.70;5.82;;;;;;;19.37;44.35;100840.38;5026166;28;20033;-78
2022/01/04 08:08:31;;;;;;;6.50;5.88;;;;;;;19.38;44.56;100844.75;5034193;28;20102;-78
2022/01/04 08:10:58;;;;;;;6.60;5.90;;;;;;;19.37;44.53;100856.47;5034522;28;20053;-78
2022/01/04 08:13:29;;;;;;;6.80;6.10;;;;;;;19.38;44.42;100857.31;5035278;28;20493;-77
2022/01/04 08:15:57;;;;;;;6.47;5.45;;;;;;;19.36;44.54;100844.00;5035651;28;20053;-76
2022/01/04 08:18:24;;;;;;;7.15;6.15;;;;;;;19.36;44.67;100843.16;5035759;28;20366;-76
2022/01/04 08:20:56;;;;;;;6.85;6.15;;;;;;;19.36;44.63;100849.38;5035568;28;20037;-76
2022/01/04 08:23:27;;;;;;;6.82;6.10;;;;;;;19.35;44.55;100847.69;5035614;28;20060;-76
2022/01/04 08:25:54;;;;;;;7.32;5.90;;;;;;;19.36;44.74;100856.59;5035625;28;20072;-76
2022/01/04 08:28:22;;;;;;;7.07;6.00;;;;;;;19.35;44.87;100850.38;5035831;28;20397;-76
2022/01/04 08:30:49;;;;;;;6.20;5.60;;;;;;;19.35;44.92;100854.91;5035222;28;20041;-76
2022/01/04 08:33:23;;;;;;;7.28;6.55;;;;;;;19.30;45.07;100846.41;5035626;28;20428;-76
2022/01/04 08:35:50;;;;;;;7.65;6.25;;;;;;;19.28;45.40;100851.88;5018516;28;20050;-76
2022/01/04 08:38:18;;;;;;;7.47;6.32;;;;;;;19.25;45.53;100847.63;5035031;28;20045;-76
2022/01/04 08:40:45;;;;;;;6.60;5.47;;;;;;;19.24;45.25;100850.44;5035942;28;20512;-76
2022/01/04 08:43:13;;;;;;;8.32;5.95;;;;;;;19.23;45.30;100843.38;5022953;28;20045;-76
2022/01/04 08:45:40;;;;;;;7.80;6.05;;;;;;;19.23;45.38;100841.53;5015387;28;20042;-79
2022/01/04 08:48:08;;;;;;;7.78;5.65;;;;;;;19.21;45.79;100840.84;5014669;28;20042;-76
2022/01/04 08:50:35;;;;;;;9.00;6.70;;;;;;;19.18;46.28;100837.56;5013844;28;20049;-76
2022/01/04 08:53:03;;;;;;;6.80;5.63;;;;;;;19.15;46.30;100846.69;5013480;28;20053;-76
2022/01/04 08:55:30;;;;;;;12.38;9.10;;;;;;;19.03;43.52;100842.38;5014380;28;20046;-76
2022/01/04 08:58:01;;;;;;;7.38;6.13;;;;;;;18.99;46.21;100841.78;4997992;28;20057;-76
2022/01/04 09:00:36;;;;;;;7.05;6.35;;;;;;;19.00;46.25;100848.03;5014858;28;20046;-76
2022/01/04 09:03:04;;;;;;;8.07;7.28;;;;;;;19.00;46.18;100846.19;5015340;28;20050;-76
2022/01/04 09:05:32;;;;;;;7.57;6.78;;;;;;;19.02;46.01;100843.38;5015732;28;20052;-76
2022/01/04 09:08:00;;;;;;;7.20;5.93;;;;;;;19.03;46.19;100845.91;5031586;28;20034;-77
2022/01/04 09:10:28;;;;;;;7.95;6.53;;;;;;;19.03;46.07;100848.59;5034963;28;20044;-76
2022/01/04 09:13:01;;;;;;;7.80;6.65;;;;;;;19.06;46.04;100838.59;5035192;28;20053;-76
2022/01/04 09:21:14;;;;;;;7.35;6.15;;;;;;;19.00;46.03;100842.66;5035040;28;20046;-76
2022/01/04 09:23:43;;;;;;;8.02;6.25;;;;;;;19.00;45.72;100839.97;5035453;28;20045;-76
2022/01/04 09:26:13;;;;;;;7.65;6.53;;;;;;;19.03;45.82;100842.38;5033907;28;20045;-76
2022/01/04 09:28:41;;;;;;;9.38;7.20;;;;;;;19.05;45.52;100839.59;5032831;28;20094;-76
2022/01/04 09:31:12;;;;;;;7.93;7.13;;;;;;;19.06;45.73;100841.28;5032970;28;20057;-76
2022/01/04 09:33:40;;;;;;;7.78;6.85;;;;;;;19.08;45.96;100850.03;5034774;28;20408;-76
2022/01/04 09:36:34;;;;;;;8.05;6.53;;;;;;;19.08;46.00;100848.22;5034543;28;20041;-76
2022/01/04 09:39:05;;;;;;;8.98;7.07;;;;;;;19.07;45.85;100841.13;5034378;28;20041;-75
2022/01/04 09:41:32;;;;;;;8.40;7.10;;;;;;;19.08;45.77;100840.19;5034304;28;20398;-76
2022/01/04 09:44:01;;;;;;;10.63;6.93;;;;;;;19.08;45.88;100850.91;5032566;28;20149;-76
2022/01/04 09:46:29;;;;;;;8.07;6.78;;;;;;;19.09;45.89;100831.13;5015550;28;20057;-76
2022/01/04 09:48:57;;;;;;;7.90;7.10;;;;;;;19.09;45.96;100839.19;5013558;28;20390;-76
2022/01/04 09:51:26;;;;;;;8.10;6.43;;;;;;;19.11;45.60;100837.22;5014134;28;20056;-75
2022/01/04 09:53:54;;;;;;;8.65;6.32;;;;;;;19.11;45.68;100836.38;5014330;28;20382;-76
2022/01/04 09:56:21;;;;;;;8.13;6.68;;;;;;;19.10;45.68;100830.16;5014719;28;20075;-76
2022/01/04 09:58:51;;;;;;;8.43;6.47;;;;;;;19.10;45.56;100832.84;5014503;28;20049;-76
2022/01/04 10:01:20;;;;;;;10.57;7.78;;;;;;;19.10;45.65;100829.31;5014339;28;20046;-75
2022/01/04 10:04:07;;;;;;;8.25;6.63;;;;;;;19.09;45.51;100828.47;5014704;28;20053;-76
2022/01/04 10:06:36;;;;;;;7.65;6.85;;;;;;;19.09;45.74;100822.25;5015206;28;20482;-76
2022/01/04 10:09:08;;;;;;;8.25;7.45;;;;;;;19.08;45.62;100821.41;5026747;28;20037;-76
2022/01/04 10:11:39;;;;;;;7.65;6.85;;;;;;;19.09;46.06;100817.72;5033982;28;20049;-75
2022/01/04 10:14:30;;;;;;;7.20;6.50;;;;;;;19.09;46.25;100814.19;5034189;28;20052;-76
2022/01/04 10:17:06;;;;;;;8.98;7.40;;;;;;;19.10;46.37;100805.16;5033611;28;20052;-75
2022/01/04 10:19:45;;;;;;;10.32;7.35;;;;;;;19.09;46.27;100807.00;5033154;28;20063;-76
2022/01/04 10:22:23;;;;;;;17.20;15.20;;;;;;;19.00;42.59;100805.09;5032599;28;20053;-77
2022/01/04 10:25:02;;;;;;;23.77;17.75;;;;;;;18.65;42.19;100786.56;5033814;28;20061;-80
2022/01/04 10:27:38;;;;;;;22.92;18.10;;;;;;;18.45;43.20;100786.41;5032408;28;20508;-83
2022/01/04 10:30:24;;;;;;;16.10;12.30;;;;;;;18.52;45.73;100776.88;5033250;28;20057;-76
2022/01/04 10:32:56;;;;;;;13.85;11.77;;;;;;;18.58;45.48;100767.47;5032231;28;20072;-76
2022/01/04 10:35:23;;;;;;;12.77;10.83;;;;;;;18.63;45.53;100759.88;5033669;28;20048;-76
2022/01/04 10:37:52;;;;;;;14.15;11.30;;;;;;;18.66;45.37;100764.13;5033318;28;20045;-76
2022/01/04 10:40:21;;;;;;;14.35;11.77;;;;;;;18.67;45.09;100758.63;5033117;28;20045;-76
2022/01/04 10:42:49;;;;;;;15.65;12.57;;;;;;;18.70;45.03;100760.25;5027240;28;20416;-75
2022/01/04 10:45:33;;;;;;;13.10;11.60;;;;;;;18.73;45.04;100755.47;5013723;28;20049;-77
2022/01/04 10:48:10;;;;;;;13.02;11.55;;;;;;;18.75;44.88;100750.81;5012175;28;20053;-76
2022/01/04 10:50:38;;;;;;;15.02;12.05;;;;;;;18.75;44.69;100734.72;5013218;28;20054;-78
2022/01/04 10:53:13;;;;;;;13.45;11.68;;;;;;;18.78;44.97;100734.47;5013179;28;20057;-77
2022/01/04 10:55:40;;;;;;;13.15;11.77;;;;;;;18.82;45.18;100726.19;5009065;28;20049;-77
2022/01/04 10:58:20;;;;;;;14.38;12.82;;;;;;;18.83;45.25;100730.56;5012339;28;20049;-77
2022/01/04 11:00:57;;;;;;;14.30;12.80;;;;;;;18.85;45.32;100729.44;5002005;28;20050;-76
2022/01/04 11:03:28;;;;;;;15.40;12.70;;;;;;;18.84;45.67;100717.03;5011975;28;20054;-76
2022/01/04 11:06:09;;;;;;;15.80;11.13;;;;;;;18.88;45.74;100712.22;5013040;28;20056;-77
2022/01/04 11:08:37;;;;;;;12.63;10.60;;;;;;;18.88;46.16;100704.19;5017392;28;20042;-77
2022/01/04 11:11:05;;;;;;;14.35;11.10;;;;;;;18.89;46.26;100709.44;5030736;28;20053;-77
2022/01/04 11:13:33;;;;;;;12.32;10.80;;;;;;;18.90;46.43;100711.13;5009846;28;20049;-77
2022/01/04 11:16:01;;;;;;;12.38;11.07;;;;;;;18.90;46.56;100704.91;5003839;28;20054;-77
2022/01/04 11:18:30;;;;;;;11.80;10.30;;;;;;;18.90;46.64;100689.66;4994098;28;20053;-77
2022/01/04 11:21:00;;;;;;;12.30;10.20;;;;;;;18.92;46.73;100695.75;5012718;28;20038;-77
2022/01/04 11:23:32;;;;;;;12.40;11.02;;;;;;;18.93;46.65;100688.56;5011356;28;20046;-77
2022/01/04 11:26:02;;;;;;;11.80;10.60;;;;;;;18.94;46.77;100677.69;5012212;28;20056;-77
2022/01/04 11:28:29;;;;;;;13.50;10.85;;;;;;;18.94;47.07;100682.19;5003628;28;20054;-77
2022/01/04 11:31:05;;;;;;;11.93;10.63;;;;;;;18.95;46.90;100665.13;4993091;28;20043;-77
2022/01/04 11:33:45;;;;;;;11.10;9.95;;;;;;;18.98;46.94;100672.91;4993036;28;20062;-77
2022/01/04 11:36:15;;;;;;;11.68;10.13;;;;;;;18.97;47.00;100669.38;4995691;28;20050;-77
2022/01/04 11:38:42;;;;;;;11.88;10.27;;;;;;;18.96;46.90;100674.88;4999400;28;20042;-78
2022/01/04 11:41:24;;;;;;;11.38;9.25;;;;;;;18.97;46.91;100673.91;4993658;28;20053;-77